Keokuk, IA (52632)

5:12 PM CDT on July 25, 2017 (GMT -0500)
KEOIA | | Change Station
Active Advisory: Flood Warning

Elev 629 ft 40.40 °N, 91.38 °W | Updated 11 seconds ago

Clear
Clear
87.6 °F
Feels Like 92 °F
N
3.0
Wind Variable Wind from ENE
Gusts 7.0 mph

Today
High -- | Low -- °F
--% Chance of Precip.
Yesterday
High -- | Low -- °F
Precip. -- in
Pressure 30.07 in
Visibility 10.0 miles
Clouds Clear
Heat Index 92 °F
Dew Point 69 °F
Humidity 54%
Rainfall 0.00 in
Snow Depth Not available.
5:56 AM 8:26 PM
Waxing Crescent, 8% visible
METAR KEOK 252155Z AUTO 12011KT 10SM CLR 30/20 A3007 RMK AO2
Pressure 30.07 in
Visibility 10.0 miles
Clouds Clear
Heat Index 92 °F
Dew Point 69 °F
Humidity 54%
Rainfall 0.00 in
Snow Depth Not available.
5:56 AM 8:26 PM
Waxing Crescent, 8% visible
METAR KEOK 252155Z AUTO 12011KT 10SM CLR 30/20 A3007 RMK AO2

Get Your Daily Forecast Email!

Thanks for signing up!

Be on the lookout for a verification email in your inbox.

You'll start receiving severe weather alerts in your inbox..

×

10-Day Weather Forecast

Almanac

Astronomy

Jul. 25, 2017 Rise Set
Actual Time
Civil Twilight
Nautical Twilight
Astronomical Twilight
Moon
Length of Visible Light
Length of Day
Tomorrow will be .
, % of the Moon is Illuminated

Today's Extremes

State Highs State Lows

Community

WunderPhotos

Category 6

Welcome to Category 6. This is the collective home for Weather Underground's featured writeups by Dr. Jeff Masters (right), Bob Henson (left), Chris Burt, and other regular contributors.

Nearby

Air Quality

  Air Quality AQ Index Pollutant
Not available.

Snow Depth

Station Depth Elevation

Earthquake Activity

City Distance Mag. Time & Date
Minimum magnitude displayed is 2.5.

Coastal Water Temperatures

Place Temperature

Stations

Nearby Weather Stations

Station Location Temp. Windchill Dew Point Humidity Wind Precip. Elev Updated Type
                   

Watches & Warnings

Flood Warning
Issued: 10:58 AM CDT Jul. 25, 2017 – National Weather Service

... Flood Warning now in effect until Sunday morning...

The Flood Warning continues for
the Mississippi River at Burlington.
* Until Sunday morning.
* At 10:00 am Tuesday the stage was 15.3 feet and rising.
* Flood stage is 15.0 feet.
* Minor flooding is occurring and moderate flooding is forecast.
* Forecast... rise to 16.5 feet Friday morning. Fall below flood stage
Sunday morning.
* Impact... at 16.0 feet, water affects low lying buildings and homes
in Montrose and Niota.


Lat... Lon 4086 9110 4084 9105 4062 9108 4061 9142
     4067 9118


Haase